Airfield :
LOGIN :

Register | Disclaimer

   EN    FR    IT 

 










Legend :    VFR   Marginal VFR   IFR   Intensive IFR   Very Intensive IFR
Visi :
Ceiling :
>= 8 km
>= 3000ft
5 to 8 km
1000 to 3000 ft
1500m to 5 km
500 to 1000 ft
800 to 1500m
200 to 500 ft
< 800m
< 200 ft
Symbols :   Thunderstorms  Fog  Heavy snow  Heavy precipitations  Wind > 20 kt
SIGMETs :     Misc.  Thunderstorms  Icing  Turbulence  Mountain Waves  Volcanic Ashes







- Airport Elevation : 13 ft
- IATA code : CAG


LIEE - Cagliari Elmas

CURRENT METAR :
  • 191450Z 15014KT 9999 FEW035 15/09 Q1021

EXPIRED METARs :
  • 191420Z 15015KT 9999 FEW040 15/09 Q1021
  • 191350Z 15015KT 9999 FEW040 15/09 Q1021
  • 191320Z 15013KT 9999 FEW030 16/09 Q1021
  • 191250Z 15012KT 9999 FEW030 16/10 Q1021
  • 191220Z 15014KT 9999 FEW030 16/09 Q1021

TAF TAF LIEE
Valid from the 19 at 12:00 until the 20 at 12:00 UTC


191100Z 1912/2012 14010KT 9999 SCT025
BECMG 1918/1920 35006KT
No reported NOTAMs for that airfield.
1 SIGMET reported for the Roma FIR (LIRR) :
 
Volcanic ashes
LIRR SIGMET 4 VALID 191200/191830 LIIB
LIRR ROMA FIR VA ERUPTION MT ETNA PSN N3744 E01500 VA CLD OBS AT 1200Z WI N3725 E01445 - N3755 E01400 - N3830 E01434 - N3740 E01504 - N3725 E01445 MOV W 10KT SFC/FL180 NC FCST AT 1800Z WI N3730 E01425 - N3804 E01319 - N3845 E01355 - N3734 E01510 - N3730 E01425=



MET'MAP, your aeronautical weather chart ! - Copyright ORBIFLY December 2007 - Disclaimer

ORBIFLY MET'MAP TEAM :

Programming & Development : Alexandra Zaïnal
Concept & Development : Baudouin d'Aumeries
Co-Development & Prog : Marc-Olivier Méhu
Technical & hardware support : Manuel Goepfert

Contact : metmap@orbifly.com




SOURCES & CREDITS :

   NOAA